Terminal Aerodrome Forecast
Issued by NWS Cleveland, OH

Home | Current Version | Previous Version | Graphics & Text | Print | Product List | Glossary On
Versions: 1 2 3 4 5 6 7 8 9 10 11 12 13 14 15 16 17 18 19 20 21 22 23 24 25 26 27
000
FTUS41 KCLE 152300 CCA
TAFCLE
TAF COR
KCLE 152356Z 1600/1706 VRB04KT P6SM -SHRA BKN045 OVC060
     FM160100 31004KT 6SM -SHRA BR SCT025 BKN045
      TEMPO 1601/1605 4SM RA BR BKN025
     FM160500 28004KT 5SM BR OVC012
     FM160700 33004KT 5SM BR OVC007
     FM161400 32004KT P6SM BKN015
     FM161900 34006KT P6SM SCT035=

USA.gov is the U.S. government's official web portal to all federal, state and local government web resources and services.